Airfield :
LOGIN :

Register | Disclaimer

   EN    FR    IT 

 










Legend :    VFR   Marginal VFR   IFR   Intensive IFR   Very Intensive IFR
Visi :
Ceiling :
>= 8 km
>= 3000ft
5 to 8 km
1000 to 3000 ft
1500m to 5 km
500 to 1000 ft
800 to 1500m
200 to 500 ft
< 800m
< 200 ft
Symbols :   Thunderstorms  Fog  Heavy snow  Heavy precipitations  Wind > 20 kt
SIGMETs :     Misc.  Thunderstorms  Icing  Turbulence  Mountain Waves  Volcanic Ashes







- Airport Elevation : 194 ft
- IATA code : ANE
- Download approach charts


LFJR - Angers Marcé

CURRENT METAR :
  • 220630Z AUTO 00000KT 0250 R26/0275N FG VV/// 01/01 Q1029 BECMG CAVOK

EXPIRED METARs :
  • 220600Z AUTO 00000KT 0350 R26/0400N FG NSC 02/02 Q1028 TEMPO 0600 FG VV///
  • 220530Z AUTO 06001KT 0800 R26/1300U FG NSC 03/03 Q1028
  • 220500Z AUTO 08003KT 0900 0650 R26/1300U FG FEW004 03/03 Q1028
  • 220430Z AUTO 07004KT 0450 R26/0500N FG VV/// 04/04 Q1028
  • 220400Z AUTO 06004KT 2300 BR VV/// 05/05 Q1028

TAF AMD TAF LFJR
Valid from the 22 at 06:00 until the 22 at 15:00 UTC


220628Z 2206/2215 08004KT 3000 BR NSC
TEMPO 2206/2208 0300 FG VV///
BECMG 2208/2210 CAVOK
No reported NOTAMs for that airfield.



MET'MAP, your aeronautical weather chart ! - Copyright ORBIFLY December 2007 - Disclaimer

ORBIFLY MET'MAP TEAM :

Programming & Development : Alexandra Zaïnal
Concept & Development : Baudouin d'Aumeries
Co-Development & Prog : Marc-Olivier Méhu
Technical & hardware support : Manuel Goepfert

Contact : metmap@orbifly.com




SOURCES & CREDITS :

   NOAA